sensor_id;sensor_type;location;lat;lon;timestamp;pressure;altitude;pressure_sealevel;temperature;humidity
75208;BME280;63795;55.684;37.864;2022-11-20T00:03:47;99796.19;;;-2.15;77.65
75208;BME280;63795;55.684;37.864;2022-11-20T00:08:49;99788.97;;;-2.24;76.79
75208;BME280;63795;55.684;37.864;2022-11-20T00:13:53;99794.38;;;-2.19;77.14
75208;BME280;63795;55.684;37.864;2022-11-20T00:18:54;99812.84;;;-2.15;76.87
75208;BME280;63795;55.684;37.864;2022-11-20T00:23:55;99804.81;;;-2.16;77.67
75208;BME280;63795;55.684;37.864;2022-11-20T00:28:58;99806.13;;;-2.22;76.39
75208;BME280;63795;55.684;37.864;2022-11-20T00:33:59;99801.06;;;-2.29;76.35
75208;BME280;63795;55.684;37.864;2022-11-20T00:38:59;99804.97;;;-2.30;77.01
75208;BME280;63795;55.684;37.864;2022-11-20T00:44:00;99810.53;;;-2.30;76.63
75208;BME280;63795;55.684;37.864;2022-11-20T00:49:00;99786.81;;;-2.44;77.13
75208;BME280;63795;55.684;37.864;2022-11-20T00:54:01;99805.13;;;-2.35;76.95
75208;BME280;63795;55.684;37.864;2022-11-20T00:59:02;99813.13;;;-2.33;76.83
75208;BME280;63795;55.684;37.864;2022-11-20T01:04:03;99813.63;;;-2.31;76.05
75208;BME280;63795;55.684;37.864;2022-11-20T01:09:13;99803.66;;;-2.32;76.56
75208;BME280;63795;55.684;37.864;2022-11-20T01:14:17;99806.25;;;-2.36;76.32
75208;BME280;63795;55.684;37.864;2022-11-20T01:19:21;99799.72;;;-2.40;75.75
75208;BME280;63795;55.684;37.864;2022-11-20T01:24:22;99771.78;;;-2.52;77.01
75208;BME280;63795;55.684;37.864;2022-11-20T01:29:24;99793.00;;;-2.56;76.95
75208;BME280;63795;55.684;37.864;2022-11-20T01:34:24;99809.81;;;-2.52;76.82
75208;BME280;63795;55.684;37.864;2022-11-20T01:39:26;99797.72;;;-2.57;76.66
75208;BME280;63795;55.684;37.864;2022-11-20T01:44:52;99819.97;;;-2.39;76.62
75208;BME280;63795;55.684;37.864;2022-11-20T01:50:01;99818.31;;;-2.40;76.01
75208;BME280;63795;55.684;37.864;2022-11-20T01:55:13;99813.28;;;-2.47;76.11
75208;BME280;63795;55.684;37.864;2022-11-20T02:00:17;99815.06;;;-2.51;76.48
75208;BME280;63795;55.684;37.864;2022-11-20T02:05:24;99821.22;;;-2.54;75.58
75208;BME280;63795;55.684;37.864;2022-11-20T02:10:27;99838.88;;;-2.50;76.39
75208;BME280;63795;55.684;37.864;2022-11-20T02:15:28;99837.25;;;-2.51;75.75
75208;BME280;63795;55.684;37.864;2022-11-20T02:20:28;99847.84;;;-2.53;76.69
75208;BME280;63795;55.684;37.864;2022-11-20T02:25:30;99841.63;;;-2.58;76.48
75208;BME280;63795;55.684;37.864;2022-11-20T02:30:33;99847.97;;;-2.58;76.39
75208;BME280;63795;55.684;37.864;2022-11-20T02:40:34;99840.97;;;-2.55;75.87
75208;BME280;63795;55.684;37.864;2022-11-20T02:45:34;99876.59;;;-2.40;75.47
75208;BME280;63795;55.684;37.864;2022-11-20T02:50:38;99869.09;;;-2.40;75.59
75208;BME280;63795;55.684;37.864;2022-11-20T02:55:40;99851.28;;;-2.47;75.88
75208;BME280;63795;55.684;37.864;2022-11-20T03:00:42;99857.63;;;-2.55;75.26
75208;BME280;63795;55.684;37.864;2022-11-20T03:05:43;99861.53;;;-2.57;75.71
75208;BME280;63795;55.684;37.864;2022-11-20T03:10:43;99869.06;;;-2.48;75.30
75208;BME280;63795;55.684;37.864;2022-11-20T03:15:44;99873.00;;;-2.49;75.74
75208;BME280;63795;55.684;37.864;2022-11-20T03:20:44;99876.09;;;-2.51;75.06
75208;BME280;63795;55.684;37.864;2022-11-20T03:25:45;99880.00;;;-2.52;75.07
75208;BME280;63795;55.684;37.864;2022-11-20T03:30:45;99879.31;;;-2.58;76.02
75208;BME280;63795;55.684;37.864;2022-11-20T03:35:46;99891.75;;;-2.55;75.80
75208;BME280;63795;55.684;37.864;2022-11-20T03:40:46;99884.53;;;-2.56;74.98
75208;BME280;63795;55.684;37.864;2022-11-20T03:45:47;99889.28;;;-2.57;75.30
75208;BME280;63795;55.684;37.864;2022-11-20T03:50:47;99877.81;;;-2.64;75.47
75208;BME280;63795;55.684;37.864;2022-11-20T03:55:51;99890.88;;;-2.64;75.85
75208;BME280;63795;55.684;37.864;2022-11-20T04:00:51;99887.94;;;-2.68;75.00
75208;BME280;63795;55.684;37.864;2022-11-20T04:05:52;99907.25;;;-2.54;74.97
75208;BME280;63795;55.684;37.864;2022-11-20T04:10:52;99907.63;;;-2.47;75.31
75208;BME280;63795;55.684;37.864;2022-11-20T04:15:57;99901.38;;;-2.52;74.42
75208;BME280;63795;55.684;37.864;2022-11-20T04:20:58;99910.84;;;-2.53;75.03
75208;BME280;63795;55.684;37.864;2022-11-20T04:26:09;99913.63;;;-2.53;75.49
75208;BME280;63795;55.684;37.864;2022-11-20T04:31:13;99919.66;;;-2.51;74.58
75208;BME280;63795;55.684;37.864;2022-11-20T04:36:16;99933.38;;;-2.46;73.40
75208;BME280;63795;55.684;37.864;2022-11-20T04:41:19;99946.75;;;-2.48;74.30
75208;BME280;63795;55.684;37.864;2022-11-20T04:46:20;99954.50;;;-2.68;75.11
75208;BME280;63795;55.684;37.864;2022-11-20T04:51:21;99961.69;;;-2.67;75.44
75208;BME280;63795;55.684;37.864;2022-11-20T04:56:21;99963.22;;;-2.61;74.40
75208;BME280;63795;55.684;37.864;2022-11-20T05:01:23;99961.41;;;-2.57;74.30
75208;BME280;63795;55.684;37.864;2022-11-20T05:06:24;99969.09;;;-2.53;74.06
75208;BME280;63795;55.684;37.864;2022-11-20T05:11:25;99972.81;;;-2.58;74.38
75208;BME280;63795;55.684;37.864;2022-11-20T05:16:25;99968.88;;;-2.66;74.17
75208;BME280;63795;55.684;37.864;2022-11-20T05:21:26;99979.69;;;-2.55;74.04
75208;BME280;63795;55.684;37.864;2022-11-20T05:26:27;99987.34;;;-2.61;73.78
75208;BME280;63795;55.684;37.864;2022-11-20T05:31:28;100000.47;;;-2.53;73.34
75208;BME280;63795;55.684;37.864;2022-11-20T05:36:29;99984.34;;;-2.73;73.46
75208;BME280;63795;55.684;37.864;2022-11-20T05:41:30;99984.41;;;-2.65;73.12
75208;BME280;63795;55.684;37.864;2022-11-20T05:46:30;99998.44;;;-2.61;73.41
75208;BME280;63795;55.684;37.864;2022-11-20T05:51:31;99992.84;;;-2.70;72.98
75208;BME280;63795;55.684;37.864;2022-11-20T05:56:31;100020.47;;;-2.65;73.48
75208;BME280;63795;55.684;37.864;2022-11-20T06:01:32;100011.13;;;-2.91;74.10
75208;BME280;63795;55.684;37.864;2022-11-20T06:06:33;100042.19;;;-2.80;73.43
75208;BME280;63795;55.684;37.864;2022-11-20T06:11:33;100052.94;;;-2.65;73.75
75208;BME280;63795;55.684;37.864;2022-11-20T06:16:34;100044.63;;;-2.57;73.05
75208;BME280;63795;55.684;37.864;2022-11-20T06:21:34;100034.06;;;-2.77;73.84
75208;BME280;63795;55.684;37.864;2022-11-20T06:26:35;100075.53;;;-2.72;73.77
75208;BME280;63795;55.684;37.864;2022-11-20T06:31:36;100068.16;;;-2.76;74.20
75208;BME280;63795;55.684;37.864;2022-11-20T06:36:37;100080.53;;;-2.60;73.33
75208;BME280;63795;55.684;37.864;2022-11-20T06:41:41;100094.34;;;-2.46;73.21
75208;BME280;63795;55.684;37.864;2022-11-20T06:46:41;100090.63;;;-2.42;72.50
75208;BME280;63795;55.684;37.864;2022-11-20T06:51:42;100090.44;;;-2.23;72.13
75208;BME280;63795;55.684;37.864;2022-11-20T06:56:46;100085.75;;;-2.14;72.11
75208;BME280;63795;55.684;37.864;2022-11-20T07:01:47;100088.34;;;-2.18;72.44
75208;BME280;63795;55.684;37.864;2022-11-20T07:06:48;100087.91;;;-2.33;72.70
75208;BME280;63795;55.684;37.864;2022-11-20T07:11:49;100078.25;;;-2.36;72.65
75208;BME280;63795;55.684;37.864;2022-11-20T07:16:49;100080.50;;;-2.16;72.69
75208;BME280;63795;55.684;37.864;2022-11-20T07:21:50;100098.63;;;-2.18;72.12
75208;BME280;63795;55.684;37.864;2022-11-20T07:26:50;100085.72;;;-2.23;72.22
75208;BME280;63795;55.684;37.864;2022-11-20T07:31:51;100082.59;;;-2.21;72.26
75208;BME280;63795;55.684;37.864;2022-11-20T07:36:51;100092.56;;;-2.20;72.28
75208;BME280;63795;55.684;37.864;2022-11-20T07:41:52;100100.38;;;-2.22;72.09
75208;BME280;63795;55.684;37.864;2022-11-20T07:46:52;100094.41;;;-2.16;71.81
75208;BME280;63795;55.684;37.864;2022-11-20T07:51:53;100094.22;;;-2.19;71.84
75208;BME280;63795;55.684;37.864;2022-11-20T07:56:56;100089.00;;;-2.12;71.50
75208;BME280;63795;55.684;37.864;2022-11-20T08:01:56;100110.97;;;-2.02;71.52
75208;BME280;63795;55.684;37.864;2022-11-20T08:06:57;100114.56;;;-2.02;70.76
75208;BME280;63795;55.684;37.864;2022-11-20T08:11:57;100121.81;;;-1.92;70.59
75208;BME280;63795;55.684;37.864;2022-11-20T08:17:16;100131.66;;;-1.86;70.64
75208;BME280;63795;55.684;37.864;2022-11-20T08:22:17;100118.63;;;-1.77;70.66
75208;BME280;63795;55.684;37.864;2022-11-20T08:27:17;100130.59;;;-1.77;70.54
75208;BME280;63795;55.684;37.864;2022-11-20T08:32:18;100137.59;;;-1.79;70.35
75208;BME280;63795;55.684;37.864;2022-11-20T08:37:19;100133.81;;;-1.83;70.85
75208;BME280;63795;55.684;37.864;2022-11-20T08:42:19;100129.38;;;-1.84;70.16
75208;BME280;63795;55.684;37.864;2022-11-20T08:47:19;100132.22;;;-1.76;70.06
75208;BME280;63795;55.684;37.864;2022-11-20T08:52:20;100137.50;;;-1.65;71.01
75208;BME280;63795;55.684;37.864;2022-11-20T08:57:20;100146.47;;;-1.68;70.05
75208;BME280;63795;55.684;37.864;2022-11-20T09:02:21;100172.00;;;-1.58;70.12
75208;BME280;63795;55.684;37.864;2022-11-20T09:07:22;100177.06;;;-1.60;69.87
75208;BME280;63795;55.684;37.864;2022-11-20T09:12:22;100180.75;;;-1.73;70.59
75208;BME280;63795;55.684;37.864;2022-11-20T09:17:22;100186.19;;;-1.90;71.63
75208;BME280;63795;55.684;37.864;2022-11-20T09:22:23;100194.84;;;-1.92;71.71
75208;BME280;63795;55.684;37.864;2022-11-20T09:27:23;100197.31;;;-2.12;71.77
75208;BME280;63795;55.684;37.864;2022-11-20T09:32:24;100221.78;;;-2.14;72.29
75208;BME280;63795;55.684;37.864;2022-11-20T09:37:24;100230.25;;;-2.19;72.53
75208;BME280;63795;55.684;37.864;2022-11-20T09:42:41;100232.47;;;-2.08;72.91
75208;BME280;63795;55.684;37.864;2022-11-20T09:58:29;100232.53;;;-1.55;71.73
75208;BME280;63795;55.684;37.864;2022-11-20T10:08:48;100219.78;;;-1.78;72.13
75208;BME280;63795;55.684;37.864;2022-11-20T10:14:02;100246.69;;;-1.65;72.09
75208;BME280;63795;55.684;37.864;2022-11-20T10:24:50;100256.22;;;-1.57;73.18
75208;BME280;63795;55.684;37.864;2022-11-20T10:30:08;100242.75;;;-1.64;72.89
75208;BME280;63795;55.684;37.864;2022-11-20T10:45:40;100248.06;;;-1.76;72.97
75208;BME280;63795;55.684;37.864;2022-11-20T10:56:31;100268.91;;;-1.43;71.82
75208;BME280;63795;55.684;37.864;2022-11-20T11:01:42;100274.22;;;-1.33;71.66
75208;BME280;63795;55.684;37.864;2022-11-20T11:06:47;100272.53;;;-1.34;74.23
75208;BME280;63795;55.684;37.864;2022-11-20T11:11:48;100277.81;;;-1.32;71.97
75208;BME280;63795;55.684;37.864;2022-11-20T11:16:56;100277.31;;;-1.34;72.70
75208;BME280;63795;55.684;37.864;2022-11-20T11:21:57;100274.38;;;-1.29;71.63
75208;BME280;63795;55.684;37.864;2022-11-20T11:27:03;100292.63;;;-1.15;73.52
75208;BME280;63795;55.684;37.864;2022-11-20T11:32:20;100281.63;;;-1.20;72.12
75208;BME280;63795;55.684;37.864;2022-11-20T11:37:22;100278.22;;;-1.17;71.92
75208;BME280;63795;55.684;37.864;2022-11-20T11:42:23;100270.00;;;-1.22;74.14
75208;BME280;63795;55.684;37.864;2022-11-20T11:47:46;100287.41;;;-1.08;72.27
75208;BME280;63795;55.684;37.864;2022-11-20T11:53:09;100279.41;;;-1.09;72.77
75208;BME280;63795;55.684;37.864;2022-11-20T12:03:38;100287.22;;;-1.42;74.13
75208;BME280;63795;55.684;37.864;2022-11-20T12:14:04;100297.06;;;-1.36;74.06
75208;BME280;63795;55.684;37.864;2022-11-20T12:19:13;100296.78;;;-1.34;73.50
75208;BME280;63795;55.684;37.864;2022-11-20T12:24:28;100300.09;;;-1.24;72.59
75208;BME280;63795;55.684;37.864;2022-11-20T12:29:40;100301.34;;;-1.30;73.63
75208;BME280;63795;55.684;37.864;2022-11-20T12:55:59;100304.75;;;-1.11;72.25
75208;BME280;63795;55.684;37.864;2022-11-20T13:01:27;100307.31;;;-1.23;72.78
75208;BME280;63795;55.684;37.864;2022-11-20T13:06:44;100302.88;;;-1.46;73.56
75208;BME280;63795;55.684;37.864;2022-11-20T13:12:01;100325.13;;;-1.46;73.55
75208;BME280;63795;55.684;37.864;2022-11-20T13:17:17;100317.09;;;-1.47;72.19
75208;BME280;63795;55.684;37.864;2022-11-20T13:22:28;100308.44;;;-1.46;73.60
75208;BME280;63795;55.684;37.864;2022-11-20T13:27:29;100319.63;;;-1.37;71.50
75208;BME280;63795;55.684;37.864;2022-11-20T13:32:31;100348.50;;;-1.25;71.91
75208;BME280;63795;55.684;37.864;2022-11-20T13:37:34;100338.41;;;-1.21;71.09
75208;BME280;63795;55.684;37.864;2022-11-20T13:42:39;100343.13;;;-1.21;72.92
75208;BME280;63795;55.684;37.864;2022-11-20T13:47:47;100342.47;;;-1.18;71.13
75208;BME280;63795;55.684;37.864;2022-11-20T13:53:00;100332.94;;;-1.26;71.31
75208;BME280;63795;55.684;37.864;2022-11-20T14:03:33;100352.31;;;-1.43;72.74
75208;BME280;63795;55.684;37.864;2022-11-20T14:08:52;100356.84;;;-1.47;71.69
75208;BME280;63795;55.684;37.864;2022-11-20T14:14:03;100359.06;;;-1.35;70.98
75208;BME280;63795;55.684;37.864;2022-11-20T14:24:22;100372.88;;;-1.44;72.14
75208;BME280;63795;55.684;37.864;2022-11-20T14:29:28;100377.94;;;-1.46;73.41
75208;BME280;63795;55.684;37.864;2022-11-20T14:34:31;100379.91;;;-1.46;71.65
75208;BME280;63795;55.684;37.864;2022-11-20T14:39:48;100371.38;;;-1.50;73.82
75208;BME280;63795;55.684;37.864;2022-11-20T14:44:50;100387.66;;;-1.57;73.34
75208;BME280;63795;55.684;37.864;2022-11-20T14:49:52;100400.34;;;-1.64;73.85
75208;BME280;63795;55.684;37.864;2022-11-20T14:54:57;100404.25;;;-1.65;72.89
75208;BME280;63795;55.684;37.864;2022-11-20T15:05:19;100388.56;;;-1.48;72.09
75208;BME280;63795;55.684;37.864;2022-11-20T15:10:24;100402.28;;;-1.29;71.53
75208;BME280;63795;55.684;37.864;2022-11-20T15:15:31;100401.97;;;-1.28;72.95
75208;BME280;63795;55.684;37.864;2022-11-20T15:20:33;100398.03;;;-1.49;73.67
75208;BME280;63795;55.684;37.864;2022-11-20T15:25:33;100399.91;;;-1.58;74.79
75208;BME280;63795;55.684;37.864;2022-11-20T15:30:34;100396.94;;;-1.61;74.50
75208;BME280;63795;55.684;37.864;2022-11-20T15:35:34;100378.31;;;-1.61;73.09
75208;BME280;63795;55.684;37.864;2022-11-20T15:40:37;100389.06;;;-1.46;72.78
75208;BME280;63795;55.684;37.864;2022-11-20T15:45:41;100398.41;;;-1.42;72.27
75208;BME280;63795;55.684;37.864;2022-11-20T15:56:13;100380.69;;;-1.32;71.77
75208;BME280;63795;55.684;37.864;2022-11-20T16:01:17;100385.53;;;-1.38;71.93
75208;BME280;63795;55.684;37.864;2022-11-20T16:06:20;100402.44;;;-1.34;72.44
75208;BME280;63795;55.684;37.864;2022-11-20T16:11:20;100382.47;;;-1.50;71.31
75208;BME280;63795;55.684;37.864;2022-11-20T16:16:23;100401.84;;;-1.45;72.25
75208;BME280;63795;55.684;37.864;2022-11-20T16:21:26;100383.00;;;-1.48;72.40
75208;BME280;63795;55.684;37.864;2022-11-20T16:26:37;100386.50;;;-1.42;71.00
75208;BME280;63795;55.684;37.864;2022-11-20T16:31:38;100387.50;;;-1.38;71.72
75208;BME280;63795;55.684;37.864;2022-11-20T16:36:39;100385.53;;;-1.38;71.15
75208;BME280;63795;55.684;37.864;2022-11-20T16:41:41;100382.63;;;-1.33;71.34
75208;BME280;63795;55.684;37.864;2022-11-20T16:46:41;100385.22;;;-1.36;70.56
75208;BME280;63795;55.684;37.864;2022-11-20T16:51:42;100400.19;;;-1.24;70.32
75208;BME280;63795;55.684;37.864;2022-11-20T16:56:42;100392.34;;;-1.22;70.26
75208;BME280;63795;55.684;37.864;2022-11-20T17:01:43;100386.78;;;-1.22;70.77
75208;BME280;63795;55.684;37.864;2022-11-20T17:06:44;100394.13;;;-1.26;70.66
75208;BME280;63795;55.684;37.864;2022-11-20T17:11:44;100406.41;;;-1.27;71.22
75208;BME280;63795;55.684;37.864;2022-11-20T17:16:45;100400.84;;;-1.27;70.70
75208;BME280;63795;55.684;37.864;2022-11-20T17:21:45;100411.22;;;-1.19;70.38
75208;BME280;63795;55.684;37.864;2022-11-20T17:26:47;100384.53;;;-1.20;70.39
75208;BME280;63795;55.684;37.864;2022-11-20T17:31:48;100386.78;;;-1.22;70.09
75208;BME280;63795;55.684;37.864;2022-11-20T17:36:49;100382.00;;;-1.30;70.41
75208;BME280;63795;55.684;37.864;2022-11-20T17:41:50;100407.00;;;-1.30;70.27
75208;BME280;63795;55.684;37.864;2022-11-20T17:47:10;100414.84;;;-1.32;70.93
75208;BME280;63795;55.684;37.864;2022-11-20T17:52:11;100400.91;;;-1.40;71.22
75208;BME280;63795;55.684;37.864;2022-11-20T17:57:11;100409.34;;;-1.45;71.80
75208;BME280;63795;55.684;37.864;2022-11-20T18:02:30;100415.88;;;-1.63;71.94
75208;BME280;63795;55.684;37.864;2022-11-20T18:07:31;100412.59;;;-1.65;70.72
75208;BME280;63795;55.684;37.864;2022-11-20T18:12:31;100387.06;;;-1.67;71.02
75208;BME280;63795;55.684;37.864;2022-11-20T18:17:32;100396.38;;;-1.50;70.22
75208;BME280;63795;55.684;37.864;2022-11-20T18:22:33;100396.78;;;-1.43;70.71
75208;BME280;63795;55.684;37.864;2022-11-20T18:27:33;100375.13;;;-1.68;70.17
75208;BME280;63795;55.684;37.864;2022-11-20T18:32:34;100393.75;;;-1.55;70.29
75208;BME280;63795;55.684;37.864;2022-11-20T18:37:35;100406.72;;;-1.64;70.49
75208;BME280;63795;55.684;37.864;2022-11-20T18:42:36;100408.75;;;-1.56;69.90
75208;BME280;63795;55.684;37.864;2022-11-20T18:47:55;100429.97;;;-1.46;69.52
75208;BME280;63795;55.684;37.864;2022-11-20T18:52:55;100421.66;;;-1.38;69.70
75208;BME280;63795;55.684;37.864;2022-11-20T18:57:56;100418.63;;;-1.50;71.18
75208;BME280;63795;55.684;37.864;2022-11-20T19:02:59;100410.88;;;-1.75;72.44
75208;BME280;63795;55.684;37.864;2022-11-20T19:08:00;100408.09;;;-1.75;72.49
75208;BME280;63795;55.684;37.864;2022-11-20T19:13:00;100393.09;;;-1.88;73.00
75208;BME280;63795;55.684;37.864;2022-11-20T19:18:01;100403.25;;;-1.69;71.87
75208;BME280;63795;55.684;37.864;2022-11-20T19:23:01;100393.28;;;-1.70;71.55
75208;BME280;63795;55.684;37.864;2022-11-20T19:28:02;100383.00;;;-1.84;73.24
75208;BME280;63795;55.684;37.864;2022-11-20T19:33:03;100376.22;;;-1.91;73.40
75208;BME280;63795;55.684;37.864;2022-11-20T19:38:03;100358.44;;;-2.04;74.24
75208;BME280;63795;55.684;37.864;2022-11-20T19:43:04;100376.56;;;-2.06;74.37
75208;BME280;63795;55.684;37.864;2022-11-20T19:48:05;100386.03;;;-2.07;74.23
75208;BME280;63795;55.684;37.864;2022-11-20T19:53:05;100388.31;;;-2.23;75.05
75208;BME280;63795;55.684;37.864;2022-11-20T19:58:06;100371.22;;;-2.30;74.29
75208;BME280;63795;55.684;37.864;2022-11-20T20:03:07;100387.28;;;-2.13;74.42
75208;BME280;63795;55.684;37.864;2022-11-20T20:08:07;100388.28;;;-2.09;74.39
75208;BME280;63795;55.684;37.864;2022-11-20T20:13:08;100395.91;;;-2.15;74.37
75208;BME280;63795;55.684;37.864;2022-11-20T20:18:08;100408.03;;;-2.24;74.64
75208;BME280;63795;55.684;37.864;2022-11-20T20:23:09;100414.81;;;-2.30;73.64
75208;BME280;63795;55.684;37.864;2022-11-20T20:28:09;100426.34;;;-2.23;74.02
75208;BME280;63795;55.684;37.864;2022-11-20T20:33:09;100400.75;;;-2.34;74.60
75208;BME280;63795;55.684;37.864;2022-11-20T20:38:10;100426.56;;;-2.20;73.64
75208;BME280;63795;55.684;37.864;2022-11-20T20:43:10;100410.09;;;-2.16;73.78
75208;BME280;63795;55.684;37.864;2022-11-20T20:48:11;100431.06;;;-2.24;73.84
75208;BME280;63795;55.684;37.864;2022-11-20T20:53:11;100397.66;;;-2.19;73.79
75208;BME280;63795;55.684;37.864;2022-11-20T20:58:12;100415.44;;;-2.06;72.46
75208;BME280;63795;55.684;37.864;2022-11-20T21:03:12;100426.31;;;-1.96;72.69
75208;BME280;63795;55.684;37.864;2022-11-20T21:08:13;100424.69;;;-1.97;72.38
75208;BME280;63795;55.684;37.864;2022-11-20T21:13:25;100424.69;;;-1.97;72.61
75208;BME280;63795;55.684;37.864;2022-11-20T21:18:26;100435.38;;;-2.04;72.55
75208;BME280;63795;55.684;37.864;2022-11-20T21:23:26;100418.84;;;-2.09;72.21
75208;BME280;63795;55.684;37.864;2022-11-20T21:28:29;100435.19;;;-2.08;72.31
75208;BME280;63795;55.684;37.864;2022-11-20T21:33:41;100430.88;;;-2.14;72.62
75208;BME280;63795;55.684;37.864;2022-11-20T21:38:42;100439.84;;;-2.17;71.61
75208;BME280;63795;55.684;37.864;2022-11-20T21:43:43;100430.03;;;-2.14;72.63
75208;BME280;63795;55.684;37.864;2022-11-20T21:48:44;100426.34;;;-2.10;72.22
75208;BME280;63795;55.684;37.864;2022-11-20T21:53:46;100403.81;;;-2.08;73.14
75208;BME280;63795;55.684;37.864;2022-11-20T21:58:48;100410.31;;;-2.13;72.15
75208;BME280;63795;55.684;37.864;2022-11-20T22:03:50;100400.44;;;-2.19;72.43
75208;BME280;63795;55.684;37.864;2022-11-20T22:08:51;100398.06;;;-2.25;72.13
75208;BME280;63795;55.684;37.864;2022-11-20T22:13:51;100414.22;;;-2.14;71.86
75208;BME280;63795;55.684;37.864;2022-11-20T22:19:14;100398.38;;;-2.13;71.50
75208;BME280;63795;55.684;37.864;2022-11-20T22:24:17;100418.72;;;-2.18;73.25
75208;BME280;63795;55.684;37.864;2022-11-20T22:29:19;100411.75;;;-2.15;71.84
75208;BME280;63795;55.684;37.864;2022-11-20T22:34:20;100399.59;;;-2.06;72.09
75208;BME280;63795;55.684;37.864;2022-11-20T22:39:20;100407.22;;;-2.11;71.67
75208;BME280;63795;55.684;37.864;2022-11-20T22:44:22;100405.28;;;-2.11;72.53
75208;BME280;63795;55.684;37.864;2022-11-20T22:49:22;100410.72;;;-2.19;72.83
75208;BME280;63795;55.684;37.864;2022-11-20T22:54:23;100409.91;;;-2.33;73.30
75208;BME280;63795;55.684;37.864;2022-11-20T22:59:23;100389.84;;;-2.30;72.83
75208;BME280;63795;55.684;37.864;2022-11-20T23:04:24;100408.75;;;-2.32;72.80
75208;BME280;63795;55.684;37.864;2022-11-20T23:09:24;100406.59;;;-2.35;72.58
75208;BME280;63795;55.684;37.864;2022-11-20T23:14:25;100383.78;;;-2.32;71.87
75208;BME280;63795;55.684;37.864;2022-11-20T23:19:25;100384.41;;;-2.35;72.85
75208;BME280;63795;55.684;37.864;2022-11-20T23:24:25;100366.91;;;-2.36;72.99
75208;BME280;63795;55.684;37.864;2022-11-20T23:29:26;100370.91;;;-2.28;72.59
75208;BME280;63795;55.684;37.864;2022-11-20T23:34:26;100364.84;;;-2.30;72.59
75208;BME280;63795;55.684;37.864;2022-11-20T23:39:27;100375.16;;;-2.31;72.42
75208;BME280;63795;55.684;37.864;2022-11-20T23:44:27;100372.91;;;-2.29;72.18
75208;BME280;63795;55.684;37.864;2022-11-20T23:49:28;100368.88;;;-2.23;71.85
75208;BME280;63795;55.684;37.864;2022-11-20T23:54:28;100367.34;;;-2.29;72.78
75208;BME280;63795;55.684;37.864;2022-11-20T23:59:29;100348.63;;;-2.37;72.05
